createdAt,value
2023-04-15T00:01:19.022Z,80.72
2023-04-15T00:03:58.411Z,80.73
2023-04-15T00:06:35.356Z,80.72
2023-04-15T00:09:11.862Z,80.77
2023-04-15T00:11:48.627Z,80.95
2023-04-15T00:14:25.293Z,81.07
2023-04-15T00:17:03.505Z,80.99
2023-04-15T00:19:40.964Z,80.70
2023-04-15T00:22:17.382Z,80.35
2023-04-15T00:24:53.721Z,80.09
2023-04-15T00:27:30.600Z,79.87
2023-04-15T00:30:08.704Z,78.56
2023-04-15T00:32:45.230Z,77.54
2023-04-15T00:35:22.072Z,77.32
2023-04-15T00:38:00.267Z,77.13
2023-04-15T00:40:36.831Z,77.26
2023-04-15T00:43:14.194Z,77.51
2023-04-15T00:45:51.324Z,77.68
2023-04-15T00:48:28.953Z,77.81
2023-04-15T00:51:05.396Z,77.89
2023-04-15T00:53:42.179Z,77.95
2023-04-15T00:56:20.312Z,78.08
2023-04-15T00:58:57.826Z,78.24
2023-04-15T01:01:35.426Z,78.31
2023-04-15T01:04:13.313Z,78.40
2023-04-15T01:06:49.770Z,78.78
2023-04-15T01:09:26.416Z,79.17
2023-04-15T01:12:02.841Z,79.26
2023-04-15T01:14:39.664Z,79.16
2023-04-15T01:17:16.049Z,78.75
2023-04-15T01:19:52.770Z,78.72
2023-04-15T01:22:30.767Z,78.80
2023-04-15T01:25:18.831Z,78.95
2023-04-15T01:27:55.237Z,79.00
2023-04-15T01:30:35.111Z,78.93
2023-04-15T01:33:11.569Z,78.92
2023-04-15T01:35:47.944Z,79.02
2023-04-15T01:38:25.440Z,79.03
2023-04-15T01:41:02.244Z,79.09
2023-04-15T01:43:39.058Z,79.06
2023-04-15T01:46:15.295Z,78.97
2023-04-15T01:48:51.826Z,78.88
2023-04-15T01:51:28.614Z,78.87
2023-04-15T01:54:05.067Z,78.85
2023-04-15T01:56:41.427Z,78.94
2023-04-15T01:59:22.985Z,78.94
2023-04-15T02:02:00.075Z,78.92
2023-04-15T02:04:37.496Z,78.90
2023-04-15T02:07:13.758Z,78.93
2023-04-15T02:09:50.794Z,78.98
2023-04-15T02:12:27.323Z,78.92
2023-04-15T02:15:03.784Z,78.99
2023-04-15T02:17:45.945Z,79.03
2023-04-15T02:20:24.977Z,79.04
2023-04-15T02:23:02.108Z,78.99
2023-04-15T02:25:39.121Z,78.88
2023-04-15T02:28:15.431Z,78.83
2023-04-15T02:30:57.699Z,78.78
2023-04-15T02:33:33.940Z,78.79
2023-04-15T02:36:12.506Z,78.76
2023-04-15T02:38:48.787Z,78.64
2023-04-15T02:41:27.987Z,78.71
2023-04-15T02:44:04.987Z,78.73
2023-04-15T02:46:41.980Z,78.80
2023-04-15T02:49:18.194Z,78.88
2023-04-15T02:51:55.626Z,78.97
2023-04-15T02:54:34.041Z,79.14
2023-04-15T02:57:12.044Z,79.23
2023-04-15T02:59:48.302Z,79.41
2023-04-15T03:02:26.093Z,79.53
2023-04-15T03:05:02.900Z,79.59
2023-04-15T03:07:40.574Z,79.81
2023-04-15T03:10:17.014Z,79.96
2023-04-15T03:12:53.669Z,79.97
2023-04-15T03:15:32.258Z,79.96
2023-04-15T03:18:10.507Z,79.98
2023-04-15T03:20:48.124Z,80.06
2023-04-15T03:23:25.628Z,80.14
2023-04-15T03:26:04.616Z,80.22
2023-04-15T03:28:43.168Z,80.40
2023-04-15T03:31:20.197Z,80.68
2023-04-15T03:33:56.614Z,80.83
2023-04-15T03:36:34.480Z,80.97
2023-04-15T03:39:11.183Z,81.08
2023-04-15T03:41:47.457Z,81.15
2023-04-15T03:44:23.815Z,81.24
2023-04-15T03:47:00.185Z,81.36
2023-04-15T03:49:36.723Z,81.47
2023-04-15T03:52:13.414Z,81.60
2023-04-15T03:54:49.805Z,81.75
2023-04-15T03:57:26.518Z,81.86
2023-04-15T04:00:02.923Z,82.00
2023-04-15T04:02:48.820Z,82.16
2023-04-15T04:05:28.368Z,82.19
2023-04-15T04:08:06.576Z,82.29
2023-04-15T04:10:42.932Z,82.32
2023-04-15T04:13:19.231Z,82.35
2023-04-15T04:15:55.703Z,82.44
2023-04-15T04:18:31.931Z,82.56
2023-04-15T04:21:08.559Z,82.67
2023-04-15T04:23:44.990Z,82.80
2023-04-15T04:26:21.617Z,82.92
2023-04-15T04:28:59.542Z,83.00
2023-04-15T04:31:36.621Z,83.02
2023-04-15T04:34:12.870Z,83.03
2023-04-15T04:36:49.145Z,83.07
2023-04-15T04:39:25.407Z,83.12
2023-04-15T04:42:02.599Z,82.99
2023-04-15T04:44:39.175Z,82.93
2023-04-15T04:47:15.376Z,82.78
2023-04-15T04:49:51.589Z,82.57
2023-04-15T04:52:27.982Z,82.58
2023-04-15T04:55:04.543Z,82.68
2023-04-15T04:57:41.186Z,82.56
2023-04-15T05:00:19.253Z,82.60
2023-04-15T05:02:55.812Z,82.76
2023-04-15T05:05:32.468Z,82.73
2023-04-15T05:08:09.613Z,82.62
2023-04-15T05:10:46.409Z,82.47
2023-04-15T05:13:22.981Z,82.35
2023-04-15T05:15:59.265Z,82.02
2023-04-15T05:18:36.830Z,81.65
2023-04-15T05:21:14.299Z,81.24
2023-04-15T05:23:51.101Z,80.74
2023-04-15T05:26:27.669Z,80.14
2023-04-15T05:29:04.277Z,79.74
2023-04-15T05:31:41.500Z,79.20
2023-04-15T05:34:17.870Z,77.47
2023-04-15T05:36:54.142Z,73.66
2023-04-15T05:39:32.819Z,68.87
2023-04-15T05:42:09.166Z,65.11
2023-04-15T05:44:45.888Z,63.10
2023-04-15T05:47:22.422Z,61.44
2023-04-15T05:49:59.326Z,61.92
2023-04-15T05:52:35.726Z,61.59
2023-04-15T05:55:14.446Z,60.96
2023-04-15T05:57:50.761Z,60.35
2023-04-15T06:00:27.550Z,59.12
2023-04-15T06:03:03.797Z,58.91
2023-04-15T06:05:45.106Z,58.97
2023-04-15T06:08:22.830Z,57.99
2023-04-15T06:10:59.691Z,55.75
2023-04-15T06:13:39.074Z,56.65
2023-04-15T06:16:16.767Z,56.34
2023-04-15T06:18:53.316Z,56.03
2023-04-15T06:21:30.056Z,56.96
2023-04-15T06:24:08.504Z,57.29
2023-04-15T06:26:44.869Z,57.38
2023-04-15T06:29:23.793Z,57.76
2023-04-15T06:32:00.348Z,57.45
2023-04-15T06:34:36.831Z,57.60
2023-04-15T06:37:16.300Z,58.09
2023-04-15T06:39:52.950Z,57.24
2023-04-15T06:42:29.611Z,57.38
2023-04-15T06:45:08.773Z,58.18
2023-04-15T06:47:45.325Z,58.29
2023-04-15T06:50:21.906Z,59.01
2023-04-15T06:52:58.780Z,59.82
2023-04-15T06:55:37.924Z,60.18
2023-04-15T06:58:14.281Z,60.29
2023-04-15T07:00:51.148Z,60.84
2023-04-15T07:03:28.013Z,61.01
2023-04-15T07:06:06.623Z,60.94
2023-04-15T07:08:43.850Z,61.17
2023-04-15T07:11:21.012Z,61.06
2023-04-15T07:14:02.589Z,60.17
2023-04-15T07:16:40.291Z,60.34
2023-04-15T07:19:16.749Z,59.83
2023-04-15T07:21:53.133Z,59.77
2023-04-15T07:24:29.368Z,57.52
2023-04-15T07:27:05.560Z,57.18
2023-04-15T07:29:42.352Z,58.72
2023-04-15T07:32:18.577Z,58.55
2023-04-15T07:34:54.969Z,57.18
2023-04-15T07:37:31.528Z,58.36
2023-04-15T07:40:10.599Z,58.19
2023-04-15T07:42:49.605Z,58.12
2023-04-15T07:45:26.235Z,58.37
2023-04-15T07:48:02.587Z,58.41
2023-04-15T07:50:38.896Z,57.49
2023-04-15T07:53:15.665Z,57.61
2023-04-15T07:55:51.881Z,56.98
2023-04-15T07:58:28.390Z,57.03
2023-04-15T08:01:05.894Z,57.27
2023-04-15T08:03:42.321Z,54.79
2023-04-15T08:08:50.196Z,53.59
2023-04-15T08:11:28.355Z,54.28
2023-04-15T08:14:04.771Z,53.51
2023-04-15T08:16:41.614Z,52.93
2023-04-15T08:19:17.901Z,51.47
2023-04-15T08:21:54.249Z,49.29
2023-04-15T08:24:31.689Z,47.96
2023-04-15T08:27:09.058Z,49.61
2023-04-15T08:29:45.781Z,48.27
2023-04-15T08:32:22.774Z,47.64
2023-04-15T08:34:59.368Z,48.32
2023-04-15T08:37:35.925Z,47.38
2023-04-15T08:40:17.182Z,48.11
2023-04-15T08:43:02.017Z,47.97
2023-04-15T08:45:41.704Z,47.92
2023-04-15T08:48:20.318Z,47.19
2023-04-15T08:50:57.091Z,44.33
2023-04-15T08:53:35.908Z,46.07
2023-04-15T08:56:15.982Z,46.65
2023-04-15T08:58:53.435Z,43.34
2023-04-15T09:01:30.077Z,42.98
2023-04-15T09:04:10.404Z,44.42
2023-04-15T09:06:47.290Z,43.49
2023-04-15T09:09:23.563Z,44.57
2023-04-15T09:11:59.767Z,44.36
2023-04-15T09:14:36.412Z,44.69
2023-04-15T09:17:19.865Z,44.05
2023-04-15T09:20:15.266Z,44.92
2023-04-15T09:22:55.016Z,43.64
2023-04-15T09:25:35.164Z,44.18
2023-04-15T09:28:12.165Z,44.78
2023-04-15T09:30:52.783Z,44.44
2023-04-15T09:33:31.698Z,42.33
2023-04-15T09:36:09.817Z,42.20
2023-04-15T09:39:00.859Z,42.94
2023-04-15T09:41:37.208Z,43.49
2023-04-15T09:44:27.981Z,43.84
2023-04-15T09:47:04.247Z,43.07
2023-04-15T09:49:56.512Z,42.99
2023-04-15T09:52:33.673Z,43.48
2023-04-15T09:55:15.612Z,42.70
2023-04-15T09:57:52.480Z,43.22
2023-04-15T10:00:30.985Z,43.24
2023-04-15T10:03:08.811Z,42.55
2023-04-15T10:05:45.686Z,43.15
2023-04-15T10:08:25.193Z,41.31
2023-04-15T10:11:02.961Z,41.97
2023-04-15T10:13:40.752Z,42.22
2023-04-15T10:16:20.952Z,41.30
2023-04-15T10:19:02.573Z,40.33
2023-04-15T10:21:39.134Z,41.95
2023-04-15T10:24:16.827Z,42.66
2023-04-15T10:26:54.329Z,42.51
2023-04-15T10:29:31.272Z,42.91
2023-04-15T10:32:08.581Z,43.14
2023-04-15T10:34:46.048Z,42.77
2023-04-15T10:37:38.010Z,42.45
2023-04-15T10:40:34.888Z,42.56
2023-04-15T10:43:27.840Z,43.21
2023-04-15T10:46:07.015Z,42.91
2023-04-15T10:48:52.510Z,43.02
2023-04-15T10:51:36.033Z,42.80
2023-04-15T10:54:17.766Z,42.89
2023-04-15T10:57:13.745Z,41.66
2023-04-15T11:00:18.625Z,42.84
2023-04-15T11:03:00.116Z,42.81
2023-04-15T11:05:57.121Z,42.05
2023-04-15T11:09:06.163Z,42.64
2023-04-15T11:12:13.414Z,43.69
2023-04-15T11:14:51.123Z,43.79
2023-04-15T11:17:34.757Z,44.16
2023-04-15T11:20:17.775Z,43.82
2023-04-15T11:23:14.078Z,43.44
2023-04-15T11:25:52.188Z,44.01
2023-04-15T11:28:32.679Z,42.92
2023-04-15T11:31:18.133Z,42.92
2023-04-15T11:34:02.622Z,43.24
2023-04-15T11:36:39.440Z,43.85
2023-04-15T11:39:16.850Z,45.16
2023-04-15T11:41:53.171Z,45.33
2023-04-15T11:44:29.662Z,44.44
2023-04-15T11:47:25.392Z,44.22
2023-04-15T11:50:21.267Z,44.92
2023-04-15T11:53:06.880Z,44.61
2023-04-15T11:55:53.395Z,45.25
2023-04-15T11:58:30.956Z,45.31
2023-04-15T12:01:09.189Z,45.53
2023-04-15T12:03:48.478Z,45.68
2023-04-15T12:06:27.929Z,45.27
2023-04-15T12:09:14.017Z,45.97
2023-04-15T12:11:53.125Z,46.85
2023-04-15T12:14:32.855Z,47.14
2023-04-15T12:17:14.175Z,46.96
2023-04-15T12:19:50.731Z,46.40
2023-04-15T12:22:27.027Z,46.03
2023-04-15T12:25:05.937Z,46.68
2023-04-15T12:27:42.702Z,46.05
2023-04-15T12:30:20.139Z,45.44
2023-04-15T12:32:59.958Z,45.40
2023-04-15T12:35:36.403Z,45.89
2023-04-15T12:38:12.870Z,45.39
2023-04-15T12:40:51.692Z,44.92
2023-04-15T12:43:28.796Z,45.32
2023-04-15T12:46:07.115Z,45.98
2023-04-15T12:48:43.878Z,45.92
2023-04-15T12:51:21.556Z,45.28
2023-04-15T12:53:58.584Z,45.29
2023-04-15T12:56:34.899Z,45.82
2023-04-15T12:59:11.166Z,45.88
2023-04-15T13:01:48.438Z,45.79
2023-04-15T13:04:30.948Z,45.34
2023-04-15T13:07:07.838Z,46.32
2023-04-15T13:09:44.995Z,46.09
2023-04-15T13:12:21.882Z,47.27
2023-04-15T13:14:59.083Z,47.43
2023-04-15T13:17:35.485Z,47.09
2023-04-15T13:20:13.958Z,46.93
2023-04-15T13:22:53.459Z,47.54
2023-04-15T13:25:29.799Z,47.73
2023-04-15T13:28:06.242Z,47.70
2023-04-15T13:30:44.250Z,48.24
2023-04-15T13:33:22.964Z,48.10
2023-04-15T13:36:03.626Z,49.00
2023-04-15T13:38:41.013Z,48.39
2023-04-15T13:41:17.491Z,48.09
2023-04-15T13:43:53.852Z,47.95
2023-04-15T13:46:30.218Z,47.49
2023-04-15T13:49:06.578Z,46.89
2023-04-15T13:51:42.902Z,46.08
2023-04-15T13:54:19.319Z,46.91
2023-04-15T13:56:56.812Z,46.69
2023-04-15T13:59:34.306Z,45.95
2023-04-15T14:02:11.395Z,46.18
2023-04-15T14:04:47.950Z,45.64
2023-04-15T14:07:24.520Z,45.44
2023-04-15T14:10:01.195Z,45.25
2023-04-15T14:12:37.866Z,44.33
2023-04-15T14:15:15.832Z,42.09
2023-04-15T14:17:52.564Z,42.22
2023-04-15T14:20:32.788Z,42.40
2023-04-15T14:23:09.156Z,44.31
2023-04-15T14:25:47.962Z,46.21
2023-04-15T14:28:25.542Z,47.04
2023-04-15T14:31:01.974Z,47.33
2023-04-15T14:33:38.292Z,47.49
2023-04-15T14:36:15.598Z,48.32
2023-04-15T14:38:51.966Z,48.66
2023-04-15T14:41:32.445Z,48.04
2023-04-15T14:44:11.693Z,48.36
2023-04-15T14:46:48.017Z,48.79
2023-04-15T14:49:24.487Z,49.07
2023-04-15T14:52:00.790Z,49.51
2023-04-15T14:54:37.139Z,50.67
2023-04-15T14:57:13.690Z,51.45
2023-04-15T14:59:50.158Z,52.05
2023-04-15T15:02:38.149Z,52.69
2023-04-15T15:05:16.666Z,52.42
2023-04-15T15:07:53.284Z,51.84
2023-04-15T15:10:38.383Z,51.74
2023-04-15T15:13:26.043Z,51.87
2023-04-15T15:16:02.354Z,52.03
2023-04-15T15:18:39.861Z,51.44
2023-04-15T15:21:17.026Z,51.01
2023-04-15T15:23:53.574Z,51.21
2023-04-15T15:26:30.045Z,51.71
2023-04-15T15:29:10.710Z,51.88
2023-04-15T15:31:47.215Z,52.38
2023-04-15T15:34:29.381Z,52.02
2023-04-15T15:37:06.271Z,51.44
2023-04-15T15:39:42.933Z,51.40
2023-04-15T15:42:20.069Z,51.07
2023-04-15T15:44:56.679Z,50.96
2023-04-15T15:47:33.211Z,50.65
2023-04-15T15:50:11.162Z,50.38
2023-04-15T15:52:47.623Z,50.52
2023-04-15T15:55:25.881Z,48.85
2023-04-15T15:58:02.199Z,48.86
2023-04-15T16:00:38.685Z,50.14
2023-04-15T16:03:15.564Z,50.62
2023-04-15T16:05:52.271Z,50.86
2023-04-15T16:08:28.991Z,50.35
2023-04-15T16:11:05.489Z,50.18
2023-04-15T16:13:42.027Z,50.33
2023-04-15T16:16:18.256Z,50.84
2023-04-15T16:18:56.913Z,51.33
2023-04-15T16:21:33.278Z,51.99
2023-04-15T16:24:10.175Z,52.71
2023-04-15T16:26:46.501Z,52.84
2023-04-15T16:29:22.863Z,53.33
2023-04-15T16:31:59.565Z,53.38
2023-04-15T16:34:39.159Z,53.69
2023-04-15T16:37:16.029Z,53.86
2023-04-15T16:39:52.461Z,54.53
2023-04-15T16:42:28.815Z,54.41
2023-04-15T16:45:05.644Z,54.07
2023-04-15T16:47:42.081Z,54.16
2023-04-15T16:50:18.714Z,54.23
2023-04-15T16:52:55.911Z,54.29
2023-04-15T16:55:32.783Z,54.48
2023-04-15T16:58:08.988Z,54.78
2023-04-15T17:00:45.728Z,55.02
2023-04-15T17:03:22.142Z,55.37
2023-04-15T17:06:01.423Z,55.52
2023-04-15T17:08:37.700Z,55.93
2023-04-15T17:11:15.484Z,56.29
2023-04-15T17:13:52.157Z,56.62
2023-04-15T17:16:29.038Z,57.05
2023-04-15T17:19:05.532Z,57.48
2023-04-15T17:21:42.211Z,57.86
2023-04-15T17:24:18.655Z,58.25
2023-04-15T17:26:56.544Z,58.61
2023-04-15T17:29:33.009Z,58.98
2023-04-15T17:32:11.510Z,59.34
2023-04-15T17:34:49.792Z,59.72
2023-04-15T17:37:27.433Z,60.05
2023-04-15T17:40:06.636Z,60.48
2023-04-15T17:42:44.870Z,60.83
2023-04-15T17:45:21.690Z,61.24
2023-04-15T17:48:00.808Z,61.91
2023-04-15T17:50:40.218Z,62.55
2023-04-15T17:53:16.684Z,64.04
2023-04-15T17:55:53.870Z,64.62
2023-04-15T17:58:35.185Z,64.99
2023-04-15T18:01:11.556Z,65.40
2023-04-15T18:03:50.079Z,65.66
2023-04-15T18:06:27.516Z,66.16
2023-04-15T18:09:08.795Z,66.37
2023-04-15T18:11:47.426Z,66.67
2023-04-15T18:14:34.092Z,66.85
2023-04-15T18:17:13.571Z,67.25
2023-04-15T18:19:50.145Z,67.71
2023-04-15T18:22:27.352Z,67.93
2023-04-15T18:25:04.696Z,68.26
2023-04-15T18:27:41.599Z,68.66
2023-04-15T18:30:19.469Z,69.02
2023-04-15T18:32:57.229Z,69.33
2023-04-15T18:35:35.321Z,69.98
2023-04-15T18:38:12.203Z,70.36
2023-04-15T18:40:58.900Z,70.62
2023-04-15T18:43:35.984Z,70.93
2023-04-15T18:46:13.925Z,71.31
2023-04-15T18:48:52.685Z,71.98
2023-04-15T18:51:29.427Z,72.55
2023-04-15T18:54:08.777Z,73.02
2023-04-15T18:56:45.457Z,73.68
2023-04-15T18:59:28.810Z,73.76
2023-04-15T19:02:09.149Z,73.69
2023-04-15T19:04:46.112Z,73.97
2023-04-15T19:07:24.085Z,74.20
2023-04-15T19:10:00.932Z,74.43
2023-04-15T19:12:37.847Z,74.77
2023-04-15T19:15:16.388Z,75.35
2023-04-15T19:17:52.904Z,75.62
2023-04-15T19:20:29.919Z,75.73
2023-04-15T19:23:07.118Z,75.87
2023-04-15T19:25:43.575Z,76.04
2023-04-15T19:28:20.369Z,76.10
2023-04-15T19:30:58.239Z,76.67
2023-04-15T19:33:35.253Z,77.13
2023-04-15T19:36:13.117Z,77.58
2023-04-15T19:38:50.027Z,77.44
2023-04-15T19:41:28.616Z,77.36
2023-04-15T19:44:09.041Z,77.41
2023-04-15T19:46:49.847Z,77.28
2023-04-15T19:49:26.335Z,77.34
2023-04-15T19:52:02.792Z,77.51
2023-04-15T19:54:39.090Z,77.74
2023-04-15T19:57:15.498Z,77.96
2023-04-15T19:59:51.795Z,78.06
2023-04-15T20:02:29.960Z,78.21
2023-04-15T20:05:10.046Z,78.37
2023-04-15T20:07:48.492Z,78.43
2023-04-15T20:10:27.306Z,78.59
2023-04-15T20:13:04.275Z,78.72
2023-04-15T20:15:40.861Z,78.92
2023-04-15T20:18:17.424Z,79.13
2023-04-15T20:20:53.890Z,79.29
2023-04-15T20:23:30.289Z,79.55
2023-04-15T20:26:06.717Z,79.70
2023-04-15T20:28:45.603Z,79.71
2023-04-15T20:31:21.864Z,79.82
2023-04-15T20:34:01.502Z,79.94
2023-04-15T20:36:37.815Z,80.07
2023-04-15T20:39:14.383Z,80.00
2023-04-15T20:41:54.285Z,79.95
2023-04-15T20:44:30.802Z,80.05
2023-04-15T20:47:07.515Z,80.14
2023-04-15T20:49:44.491Z,80.21
2023-04-15T20:52:20.927Z,80.33
2023-04-15T20:54:57.391Z,80.59
2023-04-15T20:57:33.712Z,80.72
2023-04-15T21:00:16.508Z,80.75
2023-04-15T21:02:53.066Z,80.84
2023-04-15T21:05:29.581Z,80.93
2023-04-15T21:08:06.065Z,80.98
2023-04-15T21:10:42.312Z,80.99
2023-04-15T21:13:18.576Z,80.96
2023-04-15T21:15:55.073Z,80.98
2023-04-15T21:18:31.649Z,80.69
2023-04-15T21:21:08.706Z,80.88
2023-04-15T21:23:45.089Z,80.97
2023-04-15T21:26:21.658Z,81.16
2023-04-15T21:28:58.029Z,81.30
2023-04-15T21:31:34.330Z,81.38
2023-04-15T21:34:11.359Z,81.45
2023-04-15T21:36:47.859Z,81.49
2023-04-15T21:39:24.308Z,81.52
2023-04-15T21:42:00.636Z,81.58
2023-04-15T21:44:37.557Z,81.66
2023-04-15T21:47:13.932Z,81.72
2023-04-15T21:49:50.739Z,81.78
2023-04-15T21:52:27.368Z,81.81
2023-04-15T21:55:03.619Z,81.84
2023-04-15T21:57:40.001Z,81.88
2023-04-15T22:00:18.796Z,82.01
2023-04-15T22:02:55.540Z,82.10
2023-04-15T22:05:32.086Z,82.16
2023-04-15T22:08:09.103Z,82.25
2023-04-15T22:10:45.599Z,82.33
2023-04-15T22:13:22.866Z,82.44
2023-04-15T22:15:59.162Z,82.51
2023-04-15T22:18:35.493Z,82.59
2023-04-15T22:21:11.892Z,82.69
2023-04-15T22:23:50.485Z,82.74
2023-04-15T22:26:26.983Z,82.78
2023-04-15T22:29:03.719Z,82.81
2023-04-15T22:31:42.051Z,82.90
2023-04-15T22:34:21.546Z,82.99
2023-04-15T22:36:58.208Z,83.19
2023-04-15T22:39:34.643Z,83.35
2023-04-15T22:42:11.070Z,83.51
2023-04-15T22:44:47.386Z,83.72
2023-04-15T22:47:23.868Z,83.88
2023-04-15T22:50:03.602Z,83.96
2023-04-15T22:52:40.013Z,84.01
2023-04-15T22:55:17.439Z,84.05
2023-04-15T22:57:54.011Z,84.09
2023-04-15T23:00:30.481Z,84.09
2023-04-15T23:03:07.137Z,84.18
2023-04-15T23:05:45.636Z,84.29
2023-04-15T23:08:23.898Z,84.39
2023-04-15T23:11:00.159Z,84.45
2023-04-15T23:13:36.721Z,84.53
2023-04-15T23:16:13.908Z,84.59
2023-04-15T23:18:50.469Z,84.76
2023-04-15T23:21:27.547Z,85.04
2023-04-15T23:24:04.015Z,85.21
2023-04-15T23:26:40.998Z,85.33
2023-04-15T23:29:17.278Z,85.42
2023-04-15T23:31:53.934Z,85.42
2023-04-15T23:34:30.711Z,85.47
2023-04-15T23:37:07.032Z,85.51
2023-04-15T23:39:43.232Z,85.54
2023-04-15T23:42:19.504Z,85.61
2023-04-15T23:44:55.771Z,85.66
2023-04-15T23:47:32.057Z,85.69
2023-04-15T23:50:10.917Z,85.70
2023-04-15T23:52:47.526Z,85.74
2023-04-15T23:55:24.047Z,85.80
2023-04-15T23:58:00.461Z,85.88
